Etusivu
METAR-TAF:

METAR-TAF

Lentoasemat :

Utti, Suomi

Utin lentoasema

Leveyspiiri: 60-54N, Pituuspiiri: 026-56E, korkeus merenpinnasta: 100 m

Tämänhetkinen sää

Tämä raportti tehtiin 19 minuuttia sitten, kello 22.20 UTC
Tuuli 1 kn pohjoisesta/koillisesta
Lämpötila -7°C
Kosteus 93%
Ilmanpaine 1009 hPa
Näkyvyys 10 km tai enemmän
Pilvistä 600 ft:n korkeudessa
heikkoja lumikuuroja

METAR: EFUT 202220Z AUTO 02001KT 9999 -SHSN OVC006 M07/M08 Q1009

Aika: 00:39 (22:39 UTC)


TAF: puuttuu

Säähavainnot ja -ennusteet yli 4000 lentoasemalta (METAR- ja TAF-raportit).

Käytössä olevat sääasemat on merkitty karttaan keltaisilla ja punaisilla pisteillä.

Aseta hiiri pisteen päälle nähdäksesi sääaseman nimen.

Klikkaa sitten nähdäksesi säähavainnot ja -ennusteet.

Kartan vaihtaminen: klikkaa mustalla rastilla varustettuja vihreitä pisteitä, niin voit zoomata sisään; viivalla varustettua vihreää pistettä, niin voit zoomata ulos tai vihreitä nuolia, niin pääset viereisille kartoille.


METAR-TAF: